sensor_id;sensor_type;location;lat;lon;timestamp;temperature;humidity
27314;DHT22;14800;48.174;9.798;2022-10-16T00:00:40;16.00;85.30
27314;DHT22;14800;48.174;9.798;2022-10-16T00:03:07;16.00;85.30
27314;DHT22;14800;48.174;9.798;2022-10-16T00:05:37;16.00;85.20
27314;DHT22;14800;48.174;9.798;2022-10-16T00:08:03;16.00;85.20
27314;DHT22;14800;48.174;9.798;2022-10-16T00:10:28;16.00;85.20
27314;DHT22;14800;48.174;9.798;2022-10-16T00:12:54;16.00;85.10
27314;DHT22;14800;48.174;9.798;2022-10-16T00:15:19;16.00;85.00
27314;DHT22;14800;48.174;9.798;2022-10-16T00:17:45;16.00;85.10
27314;DHT22;14800;48.174;9.798;2022-10-16T00:20:11;16.00;85.00
27314;DHT22;14800;48.174;9.798;2022-10-16T00:22:36;16.00;85.00
27314;DHT22;14800;48.174;9.798;2022-10-16T00:25:02;15.90;85.00
27314;DHT22;14800;48.174;9.798;2022-10-16T00:27:28;15.90;85.00
27314;DHT22;14800;48.174;9.798;2022-10-16T00:29:53;15.90;85.20
27314;DHT22;14800;48.174;9.798;2022-10-16T00:32:20;15.90;85.20
27314;DHT22;14800;48.174;9.798;2022-10-16T00:34:46;15.90;85.40
27314;DHT22;14800;48.174;9.798;2022-10-16T00:37:12;15.90;85.50
27314;DHT22;14800;48.174;9.798;2022-10-16T00:39:38;15.90;85.60
27314;DHT22;14800;48.174;9.798;2022-10-16T00:42:04;15.90;85.70
27314;DHT22;14800;48.174;9.798;2022-10-16T00:44:52;16.00;85.90
27314;DHT22;14800;48.174;9.798;2022-10-16T00:47:28;15.90;86.80
27314;DHT22;14800;48.174;9.798;2022-10-16T00:50:13;15.90;86.70
27314;DHT22;14800;48.174;9.798;2022-10-16T00:52:44;16.00;86.30
27314;DHT22;14800;48.174;9.798;2022-10-16T00:55:11;16.00;85.90
27314;DHT22;14800;48.174;9.798;2022-10-16T00:57:37;16.00;85.90
27314;DHT22;14800;48.174;9.798;2022-10-16T01:00:07;16.00;85.90
27314;DHT22;14800;48.174;9.798;2022-10-16T01:02:33;16.00;86.00
27314;DHT22;14800;48.174;9.798;2022-10-16T01:04:59;15.90;86.00
27314;DHT22;14800;48.174;9.798;2022-10-16T01:12:50;16.00;85.90
27314;DHT22;14800;48.174;9.798;2022-10-16T01:18:23;15.90;85.90
27314;DHT22;14800;48.174;9.798;2022-10-16T01:20:57;16.00;86.00
27314;DHT22;14800;48.174;9.798;2022-10-16T01:26:03;15.90;85.70
27314;DHT22;14800;48.174;9.798;2022-10-16T01:31:18;15.90;86.20
27314;DHT22;14800;48.174;9.798;2022-10-16T01:34:00;15.90;86.20
27314;DHT22;14800;48.174;9.798;2022-10-16T01:36:35;15.90;86.40
27314;DHT22;14800;48.174;9.798;2022-10-16T01:39:02;16.00;86.40
27314;DHT22;14800;48.174;9.798;2022-10-16T01:41:33;15.90;86.30
27314;DHT22;14800;48.174;9.798;2022-10-16T01:44:11;15.90;86.40
27314;DHT22;14800;48.174;9.798;2022-10-16T01:46:41;15.90;86.50
27314;DHT22;14800;48.174;9.798;2022-10-16T01:49:09;15.90;86.30
27314;DHT22;14800;48.174;9.798;2022-10-16T01:51:36;15.90;86.40
27314;DHT22;14800;48.174;9.798;2022-10-16T01:54:02;15.90;86.40
27314;DHT22;14800;48.174;9.798;2022-10-16T01:56:29;15.90;86.50
27314;DHT22;14800;48.174;9.798;2022-10-16T01:59:00;16.00;86.60
27314;DHT22;14800;48.174;9.798;2022-10-16T02:01:29;15.90;86.60
27314;DHT22;14800;48.174;9.798;2022-10-16T02:03:57;15.90;86.70
27314;DHT22;14800;48.174;9.798;2022-10-16T02:06:24;16.00;86.80
27314;DHT22;14800;48.174;9.798;2022-10-16T02:08:51;15.90;86.70
27314;DHT22;14800;48.174;9.798;2022-10-16T02:11:16;15.90;86.80
27314;DHT22;14800;48.174;9.798;2022-10-16T02:13:46;15.90;86.70
27314;DHT22;14800;48.174;9.798;2022-10-16T02:16:14;15.90;87.00
27314;DHT22;14800;48.174;9.798;2022-10-16T02:18:40;15.90;87.10
27314;DHT22;14800;48.174;9.798;2022-10-16T02:21:27;15.90;87.10
27314;DHT22;14800;48.174;9.798;2022-10-16T02:24:04;15.90;87.30
27314;DHT22;14800;48.174;9.798;2022-10-16T02:26:43;15.90;87.10
27314;DHT22;14800;48.174;9.798;2022-10-16T02:29:12;16.00;87.10
27314;DHT22;14800;48.174;9.798;2022-10-16T02:31:43;15.90;86.90
27314;DHT22;14800;48.174;9.798;2022-10-16T02:34:13;15.90;86.90
27314;DHT22;14800;48.174;9.798;2022-10-16T02:36:41;16.00;86.90
27314;DHT22;14800;48.174;9.798;2022-10-16T02:39:07;16.00;86.90
27314;DHT22;14800;48.174;9.798;2022-10-16T02:41:33;16.00;86.90
27314;DHT22;14800;48.174;9.798;2022-10-16T02:43:59;16.00;86.90
27314;DHT22;14800;48.174;9.798;2022-10-16T02:46:25;16.00;86.70
27314;DHT22;14800;48.174;9.798;2022-10-16T02:48:50;16.00;86.70
27314;DHT22;14800;48.174;9.798;2022-10-16T02:51:16;16.00;86.70
27314;DHT22;14800;48.174;9.798;2022-10-16T02:53:41;16.00;86.70
27314;DHT22;14800;48.174;9.798;2022-10-16T02:56:07;16.00;86.70
27314;DHT22;14800;48.174;9.798;2022-10-16T02:58:32;16.00;86.70
27314;DHT22;14800;48.174;9.798;2022-10-16T03:00:58;16.00;86.70
27314;DHT22;14800;48.174;9.798;2022-10-16T03:03:23;16.00;86.80
27314;DHT22;14800;48.174;9.798;2022-10-16T03:05:49;16.00;86.70
27314;DHT22;14800;48.174;9.798;2022-10-16T03:08:15;16.00;86.70
27314;DHT22;14800;48.174;9.798;2022-10-16T03:10:41;16.00;86.70
27314;DHT22;14800;48.174;9.798;2022-10-16T03:13:06;16.00;86.60
27314;DHT22;14800;48.174;9.798;2022-10-16T03:15:32;16.00;86.60
27314;DHT22;14800;48.174;9.798;2022-10-16T03:17:58;15.90;86.60
27314;DHT22;14800;48.174;9.798;2022-10-16T03:20:24;15.90;86.60
27314;DHT22;14800;48.174;9.798;2022-10-16T03:22:50;16.00;86.90
27314;DHT22;14800;48.174;9.798;2022-10-16T03:25:16;16.00;86.90
27314;DHT22;14800;48.174;9.798;2022-10-16T03:27:41;15.90;86.70
27314;DHT22;14800;48.174;9.798;2022-10-16T03:30:08;16.00;86.70
27314;DHT22;14800;48.174;9.798;2022-10-16T03:32:33;15.90;86.70
27314;DHT22;14800;48.174;9.798;2022-10-16T03:34:59;16.00;86.70
27314;DHT22;14800;48.174;9.798;2022-10-16T03:37:24;16.00;86.60
27314;DHT22;14800;48.174;9.798;2022-10-16T03:39:50;16.00;86.60
27314;DHT22;14800;48.174;9.798;2022-10-16T03:42:16;16.00;86.40
27314;DHT22;14800;48.174;9.798;2022-10-16T03:44:41;16.00;86.60
27314;DHT22;14800;48.174;9.798;2022-10-16T03:47:07;15.90;86.40
27314;DHT22;14800;48.174;9.798;2022-10-16T03:49:32;16.00;86.50
27314;DHT22;14800;48.174;9.798;2022-10-16T03:51:58;15.90;86.50
27314;DHT22;14800;48.174;9.798;2022-10-16T03:54:23;15.90;86.50
27314;DHT22;14800;48.174;9.798;2022-10-16T03:56:49;15.90;86.50
27314;DHT22;14800;48.174;9.798;2022-10-16T03:59:15;15.80;86.40
27314;DHT22;14800;48.174;9.798;2022-10-16T04:01:40;15.80;86.40
27314;DHT22;14800;48.174;9.798;2022-10-16T04:04:06;15.80;86.60
27314;DHT22;14800;48.174;9.798;2022-10-16T04:06:31;15.80;86.60
27314;DHT22;14800;48.174;9.798;2022-10-16T04:08:57;15.80;86.70
27314;DHT22;14800;48.174;9.798;2022-10-16T04:11:23;15.80;86.70
27314;DHT22;14800;48.174;9.798;2022-10-16T04:13:48;15.70;86.80
27314;DHT22;14800;48.174;9.798;2022-10-16T04:16:14;15.80;86.80
27314;DHT22;14800;48.174;9.798;2022-10-16T04:18:39;15.70;86.80
27314;DHT22;14800;48.174;9.798;2022-10-16T04:21:06;15.70;86.80
27314;DHT22;14800;48.174;9.798;2022-10-16T04:23:32;15.70;86.60
27314;DHT22;14800;48.174;9.798;2022-10-16T04:25:58;15.70;86.50
27314;DHT22;14800;48.174;9.798;2022-10-16T04:28:24;15.70;86.60
27314;DHT22;14800;48.174;9.798;2022-10-16T04:30:50;15.60;86.70
27314;DHT22;14800;48.174;9.798;2022-10-16T04:33:16;15.60;86.80
27314;DHT22;14800;48.174;9.798;2022-10-16T04:35:41;15.60;86.90
27314;DHT22;14800;48.174;9.798;2022-10-16T04:38:07;15.60;86.90
27314;DHT22;14800;48.174;9.798;2022-10-16T04:40:32;15.60;86.90
27314;DHT22;14800;48.174;9.798;2022-10-16T04:42:59;15.50;86.90
27314;DHT22;14800;48.174;9.798;2022-10-16T04:45:24;15.60;86.90
27314;DHT22;14800;48.174;9.798;2022-10-16T04:47:50;15.60;86.80
27314;DHT22;14800;48.174;9.798;2022-10-16T04:50:16;15.60;86.70
27314;DHT22;14800;48.174;9.798;2022-10-16T04:52:41;15.50;86.60
27314;DHT22;14800;48.174;9.798;2022-10-16T04:55:07;15.50;86.60
27314;DHT22;14800;48.174;9.798;2022-10-16T04:57:32;15.50;86.60
27314;DHT22;14800;48.174;9.798;2022-10-16T04:59:58;15.50;86.60
27314;DHT22;14800;48.174;9.798;2022-10-16T05:02:25;15.50;86.50
27314;DHT22;14800;48.174;9.798;2022-10-16T05:04:51;15.50;86.50
27314;DHT22;14800;48.174;9.798;2022-10-16T05:07:17;15.50;86.40
27314;DHT22;14800;48.174;9.798;2022-10-16T05:09:42;15.50;86.20
27314;DHT22;14800;48.174;9.798;2022-10-16T05:12:08;15.40;86.10
27314;DHT22;14800;48.174;9.798;2022-10-16T05:14:33;15.40;86.30
27314;DHT22;14800;48.174;9.798;2022-10-16T05:17:00;15.40;86.40
27314;DHT22;14800;48.174;9.798;2022-10-16T05:19:25;15.30;86.50
27314;DHT22;14800;48.174;9.798;2022-10-16T05:21:51;15.30;86.60
27314;DHT22;14800;48.174;9.798;2022-10-16T05:24:17;15.30;86.60
27314;DHT22;14800;48.174;9.798;2022-10-16T05:26:42;15.30;86.50
27314;DHT22;14800;48.174;9.798;2022-10-16T05:29:09;15.30;86.50
27314;DHT22;14800;48.174;9.798;2022-10-16T05:31:34;15.30;86.60
27314;DHT22;14800;48.174;9.798;2022-10-16T05:34:00;15.30;86.60
27314;DHT22;14800;48.174;9.798;2022-10-16T05:36:26;15.30;86.60
27314;DHT22;14800;48.174;9.798;2022-10-16T05:38:51;15.30;86.70
27314;DHT22;14800;48.174;9.798;2022-10-16T05:41:17;15.30;86.70
27314;DHT22;14800;48.174;9.798;2022-10-16T05:43:50;15.30;86.90
27314;DHT22;14800;48.174;9.798;2022-10-16T05:46:15;15.30;87.00
27314;DHT22;14800;48.174;9.798;2022-10-16T05:48:41;15.30;87.10
27314;DHT22;14800;48.174;9.798;2022-10-16T05:51:10;15.30;87.10
27314;DHT22;14800;48.174;9.798;2022-10-16T05:53:37;15.30;87.10
27314;DHT22;14800;48.174;9.798;2022-10-16T05:56:04;15.30;87.20
27314;DHT22;14800;48.174;9.798;2022-10-16T05:58:32;15.30;87.20
27314;DHT22;14800;48.174;9.798;2022-10-16T06:01:00;15.30;87.30
27314;DHT22;14800;48.174;9.798;2022-10-16T06:03:27;15.30;87.40
27314;DHT22;14800;48.174;9.798;2022-10-16T06:05:53;15.30;87.60
27314;DHT22;14800;48.174;9.798;2022-10-16T06:08:20;15.30;87.60
27314;DHT22;14800;48.174;9.798;2022-10-16T06:10:47;15.30;87.70
27314;DHT22;14800;48.174;9.798;2022-10-16T06:13:13;15.30;87.70
27314;DHT22;14800;48.174;9.798;2022-10-16T06:15:40;15.30;87.80
27314;DHT22;14800;48.174;9.798;2022-10-16T06:18:10;15.30;87.80
27314;DHT22;14800;48.174;9.798;2022-10-16T06:20:36;15.30;87.80
27314;DHT22;14800;48.174;9.798;2022-10-16T06:23:03;15.30;87.80
27314;DHT22;14800;48.174;9.798;2022-10-16T06:25:30;15.40;87.80
27314;DHT22;14800;48.174;9.798;2022-10-16T06:27:56;15.40;87.90
27314;DHT22;14800;48.174;9.798;2022-10-16T06:30:22;15.40;88.00
27314;DHT22;14800;48.174;9.798;2022-10-16T06:32:47;15.40;88.00
27314;DHT22;14800;48.174;9.798;2022-10-16T06:35:13;15.40;88.00
27314;DHT22;14800;48.174;9.798;2022-10-16T06:37:39;15.40;88.00
27314;DHT22;14800;48.174;9.798;2022-10-16T06:40:05;15.50;88.00
27314;DHT22;14800;48.174;9.798;2022-10-16T06:42:30;15.50;88.00
27314;DHT22;14800;48.174;9.798;2022-10-16T06:44:56;15.50;88.00
27314;DHT22;14800;48.174;9.798;2022-10-16T06:47:22;15.60;88.10
27314;DHT22;14800;48.174;9.798;2022-10-16T06:49:47;15.60;88.10
27314;DHT22;14800;48.174;9.798;2022-10-16T06:52:13;15.50;88.10
27314;DHT22;14800;48.174;9.798;2022-10-16T06:54:38;15.60;88.40
27314;DHT22;14800;48.174;9.798;2022-10-16T06:57:04;15.60;88.50
27314;DHT22;14800;48.174;9.798;2022-10-16T06:59:29;15.60;88.60
27314;DHT22;14800;48.174;9.798;2022-10-16T07:01:55;15.60;88.50
27314;DHT22;14800;48.174;9.798;2022-10-16T07:04:20;15.70;88.60
27314;DHT22;14800;48.174;9.798;2022-10-16T07:06:46;15.70;88.60
27314;DHT22;14800;48.174;9.798;2022-10-16T07:09:12;15.70;88.50
27314;DHT22;14800;48.174;9.798;2022-10-16T07:11:39;15.80;88.70
27314;DHT22;14800;48.174;9.798;2022-10-16T07:14:12;15.80;88.80
27314;DHT22;14800;48.174;9.798;2022-10-16T07:16:39;15.80;88.80
27314;DHT22;14800;48.174;9.798;2022-10-16T07:19:05;16.00;89.00
27314;DHT22;14800;48.174;9.798;2022-10-16T07:21:33;15.90;88.30
27314;DHT22;14800;48.174;9.798;2022-10-16T07:24:02;16.00;88.50
27314;DHT22;14800;48.174;9.798;2022-10-16T07:26:30;16.00;88.60
27314;DHT22;14800;48.174;9.798;2022-10-16T07:28:57;16.10;88.70
27314;DHT22;14800;48.174;9.798;2022-10-16T07:31:23;16.10;88.80
27314;DHT22;14800;48.174;9.798;2022-10-16T07:33:50;16.10;88.80
27314;DHT22;14800;48.174;9.798;2022-10-16T07:36:17;16.20;88.80
27314;DHT22;14800;48.174;9.798;2022-10-16T07:38:43;16.20;88.80
27314;DHT22;14800;48.174;9.798;2022-10-16T07:41:15;16.30;88.80
27314;DHT22;14800;48.174;9.798;2022-10-16T07:43:48;16.30;88.80
27314;DHT22;14800;48.174;9.798;2022-10-16T07:46:14;16.40;88.80
27314;DHT22;14800;48.174;9.798;2022-10-16T07:48:41;16.40;88.80
27314;DHT22;14800;48.174;9.798;2022-10-16T07:51:11;16.50;88.70
27314;DHT22;14800;48.174;9.798;2022-10-16T07:53:36;16.60;88.80
27314;DHT22;14800;48.174;9.798;2022-10-16T07:56:06;16.60;88.90
27314;DHT22;14800;48.174;9.798;2022-10-16T07:58:34;16.70;88.60
27314;DHT22;14800;48.174;9.798;2022-10-16T08:01:04;16.70;88.40
27314;DHT22;14800;48.174;9.798;2022-10-16T08:03:30;16.80;88.40
27314;DHT22;14800;48.174;9.798;2022-10-16T08:05:57;16.80;88.50
27314;DHT22;14800;48.174;9.798;2022-10-16T08:08:23;16.90;88.50
27314;DHT22;14800;48.174;9.798;2022-10-16T08:10:49;16.90;88.50
27314;DHT22;14800;48.174;9.798;2022-10-16T08:13:15;17.00;88.50
27314;DHT22;14800;48.174;9.798;2022-10-16T08:15:42;17.00;88.10
27314;DHT22;14800;48.174;9.798;2022-10-16T08:18:09;17.10;87.90
27314;DHT22;14800;48.174;9.798;2022-10-16T08:20:35;17.10;87.80
27314;DHT22;14800;48.174;9.798;2022-10-16T08:23:01;17.20;87.80
27314;DHT22;14800;48.174;9.798;2022-10-16T08:25:26;17.20;87.80
27314;DHT22;14800;48.174;9.798;2022-10-16T08:27:52;17.30;87.80
27314;DHT22;14800;48.174;9.798;2022-10-16T08:30:19;17.30;87.50
27314;DHT22;14800;48.174;9.798;2022-10-16T08:32:46;17.40;87.60
27314;DHT22;14800;48.174;9.798;2022-10-16T08:35:13;17.40;87.50
27314;DHT22;14800;48.174;9.798;2022-10-16T08:37:39;17.50;87.30
27314;DHT22;14800;48.174;9.798;2022-10-16T08:40:10;17.60;87.60
27314;DHT22;14800;48.174;9.798;2022-10-16T08:50:30;17.70;86.50
27314;DHT22;14800;48.174;9.798;2022-10-16T08:52:57;17.70;86.30
27314;DHT22;14800;48.174;9.798;2022-10-16T08:58:13;17.80;86.20
27314;DHT22;14800;48.174;9.798;2022-10-16T09:00:39;17.90;86.20
27314;DHT22;14800;48.174;9.798;2022-10-16T09:16:57;18.20;85.60
27314;DHT22;14800;48.174;9.798;2022-10-16T09:19:34;18.30;85.50
27314;DHT22;14800;48.174;9.798;2022-10-16T09:22:12;18.40;85.30
27314;DHT22;14800;48.174;9.798;2022-10-16T09:24:39;18.40;85.30
27314;DHT22;14800;48.174;9.798;2022-10-16T09:27:11;18.50;85.50
27314;DHT22;14800;48.174;9.798;2022-10-16T09:29:37;18.60;85.30
27314;DHT22;14800;48.174;9.798;2022-10-16T09:32:15;18.60;85.30
27314;DHT22;14800;48.174;9.798;2022-10-16T09:34:54;18.70;85.00
27314;DHT22;14800;48.174;9.798;2022-10-16T09:37:22;18.80;85.00
27314;DHT22;14800;48.174;9.798;2022-10-16T09:39:53;18.90;85.70
27314;DHT22;14800;48.174;9.798;2022-10-16T09:42:39;19.00;84.80
27314;DHT22;14800;48.174;9.798;2022-10-16T09:45:06;19.10;83.60
27314;DHT22;14800;48.174;9.798;2022-10-16T09:47:44;19.10;84.00
27314;DHT22;14800;48.174;9.798;2022-10-16T09:50:25;19.20;83.60
27314;DHT22;14800;48.174;9.798;2022-10-16T09:53:10;19.30;82.00
27314;DHT22;14800;48.174;9.798;2022-10-16T09:55:36;19.40;82.60
27314;DHT22;14800;48.174;9.798;2022-10-16T09:58:13;19.40;81.90
27314;DHT22;14800;48.174;9.798;2022-10-16T10:00:41;19.50;81.70
27314;DHT22;14800;48.174;9.798;2022-10-16T10:03:10;19.60;81.30
27314;DHT22;14800;48.174;9.798;2022-10-16T10:05:39;19.70;80.80
27314;DHT22;14800;48.174;9.798;2022-10-16T10:08:05;19.70;81.40
27314;DHT22;14800;48.174;9.798;2022-10-16T10:10:41;19.80;80.80
27314;DHT22;14800;48.174;9.798;2022-10-16T10:13:19;19.80;80.50
27314;DHT22;14800;48.174;9.798;2022-10-16T10:15:45;19.90;80.00
27314;DHT22;14800;48.174;9.798;2022-10-16T10:18:20;20.00;80.50
27314;DHT22;14800;48.174;9.798;2022-10-16T10:20:57;20.00;79.50
27314;DHT22;14800;48.174;9.798;2022-10-16T10:23:25;20.10;78.90
27314;DHT22;14800;48.174;9.798;2022-10-16T10:26:20;20.20;79.40
27314;DHT22;14800;48.174;9.798;2022-10-16T10:29:08;20.20;78.40
27314;DHT22;14800;48.174;9.798;2022-10-16T10:31:47;20.30;78.60
27314;DHT22;14800;48.174;9.798;2022-10-16T10:42:49;20.80;78.20
27314;DHT22;14800;48.174;9.798;2022-10-16T10:47:59;21.00;75.90
27314;DHT22;14800;48.174;9.798;2022-10-16T11:07:24;21.60;74.60
27314;DHT22;14800;48.174;9.798;2022-10-16T11:09:47;21.60;75.00
27314;DHT22;14800;48.174;9.798;2022-10-16T11:12:26;21.80;74.60
27314;DHT22;14800;48.174;9.798;2022-10-16T11:15:40;21.80;74.70
27314;DHT22;14800;48.174;9.798;2022-10-16T11:18:19;21.90;74.00
27314;DHT22;14800;48.174;9.798;2022-10-16T11:20:53;21.90;74.10
27314;DHT22;14800;48.174;9.798;2022-10-16T11:23:39;21.90;72.90
27314;DHT22;14800;48.174;9.798;2022-10-16T11:26:14;22.00;72.50
27314;DHT22;14800;48.174;9.798;2022-10-16T11:28:54;22.00;72.80
27314;DHT22;14800;48.174;9.798;2022-10-16T11:31:40;22.00;72.10
27314;DHT22;14800;48.174;9.798;2022-10-16T11:34:22;22.10;71.80
27314;DHT22;14800;48.174;9.798;2022-10-16T11:37:05;22.20;71.50
27314;DHT22;14800;48.174;9.798;2022-10-16T11:39:34;22.20;71.10
27314;DHT22;14800;48.174;9.798;2022-10-16T11:50:41;22.30;70.30
27314;DHT22;14800;48.174;9.798;2022-10-16T11:55:42;22.40;70.30
27314;DHT22;14800;48.174;9.798;2022-10-16T11:58:28;22.50;70.40
27314;DHT22;14800;48.174;9.798;2022-10-16T12:06:43;22.60;70.20
27314;DHT22;14800;48.174;9.798;2022-10-16T12:09:24;22.70;68.60
27314;DHT22;14800;48.174;9.798;2022-10-16T12:11:51;22.70;68.40
27314;DHT22;14800;48.174;9.798;2022-10-16T12:16:57;22.80;68.50
27314;DHT22;14800;48.174;9.798;2022-10-16T12:19:25;22.80;66.90
27314;DHT22;14800;48.174;9.798;2022-10-16T12:21:55;22.80;67.50
27314;DHT22;14800;48.174;9.798;2022-10-16T12:24:42;22.80;66.90
27314;DHT22;14800;48.174;9.798;2022-10-16T12:27:28;22.80;66.20
27314;DHT22;14800;48.174;9.798;2022-10-16T12:29:59;22.80;66.60
27314;DHT22;14800;48.174;9.798;2022-10-16T12:32:38;22.90;66.80
27314;DHT22;14800;48.174;9.798;2022-10-16T12:35:16;22.90;65.50
27314;DHT22;14800;48.174;9.798;2022-10-16T12:37:44;22.90;65.90
27314;DHT22;14800;48.174;9.798;2022-10-16T12:40:23;22.90;66.10
27314;DHT22;14800;48.174;9.798;2022-10-16T12:42:50;22.90;66.20
27314;DHT22;14800;48.174;9.798;2022-10-16T12:45:32;23.00;66.40
27314;DHT22;14800;48.174;9.798;2022-10-16T12:48:01;23.00;65.00
27314;DHT22;14800;48.174;9.798;2022-10-16T12:52:59;23.10;65.50
27314;DHT22;14800;48.174;9.798;2022-10-16T12:55:26;23.10;66.40
27314;DHT22;14800;48.174;9.798;2022-10-16T13:00:45;23.20;65.80
27314;DHT22;14800;48.174;9.798;2022-10-16T13:05:50;23.20;66.30
27314;DHT22;14800;48.174;9.798;2022-10-16T13:19:11;23.40;64.30
27314;DHT22;14800;48.174;9.798;2022-10-16T13:22:13;23.40;64.00
27314;DHT22;14800;48.174;9.798;2022-10-16T13:24:55;23.50;64.50
27314;DHT22;14800;48.174;9.798;2022-10-16T13:30:02;23.60;66.20
27314;DHT22;14800;48.174;9.798;2022-10-16T13:32:28;23.60;65.20
27314;DHT22;14800;48.174;9.798;2022-10-16T13:34:54;23.60;65.00
27314;DHT22;14800;48.174;9.798;2022-10-16T13:37:23;23.60;65.30
27314;DHT22;14800;48.174;9.798;2022-10-16T13:39:49;23.60;65.70
27314;DHT22;14800;48.174;9.798;2022-10-16T13:42:25;23.60;65.80
27314;DHT22;14800;48.174;9.798;2022-10-16T13:44:53;23.60;65.20
27314;DHT22;14800;48.174;9.798;2022-10-16T13:47:28;23.70;65.00
27314;DHT22;14800;48.174;9.798;2022-10-16T13:52:30;23.60;65.20
27314;DHT22;14800;48.174;9.798;2022-10-16T13:54:56;23.70;65.60
27314;DHT22;14800;48.174;9.798;2022-10-16T13:57:23;23.70;66.00
27314;DHT22;14800;48.174;9.798;2022-10-16T13:59:49;23.60;65.70
27314;DHT22;14800;48.174;9.798;2022-10-16T14:04:49;23.60;63.70
27314;DHT22;14800;48.174;9.798;2022-10-16T14:07:29;23.70;63.30
27314;DHT22;14800;48.174;9.798;2022-10-16T14:10:18;23.70;64.60
27314;DHT22;14800;48.174;9.798;2022-10-16T14:12:53;23.70;65.00
27314;DHT22;14800;48.174;9.798;2022-10-16T14:15:19;23.70;65.70
27314;DHT22;14800;48.174;9.798;2022-10-16T14:17:48;23.70;65.50
27314;DHT22;14800;48.174;9.798;2022-10-16T14:20:15;23.70;64.60
27314;DHT22;14800;48.174;9.798;2022-10-16T14:22:42;23.80;65.00
27314;DHT22;14800;48.174;9.798;2022-10-16T14:30:26;23.80;63.90
27314;DHT22;14800;48.174;9.798;2022-10-16T14:33:06;23.80;64.70
27314;DHT22;14800;48.174;9.798;2022-10-16T14:35:41;23.80;65.10
27314;DHT22;14800;48.174;9.798;2022-10-16T14:38:06;23.80;64.40
27314;DHT22;14800;48.174;9.798;2022-10-16T14:40:47;23.80;65.30
27314;DHT22;14800;48.174;9.798;2022-10-16T14:43:36;23.90;64.90
27314;DHT22;14800;48.174;9.798;2022-10-16T14:46:06;23.90;64.30
27314;DHT22;14800;48.174;9.798;2022-10-16T14:48:33;23.90;65.00
27314;DHT22;14800;48.174;9.798;2022-10-16T14:50:58;23.90;65.30
27314;DHT22;14800;48.174;9.798;2022-10-16T14:53:24;23.90;65.40
27314;DHT22;14800;48.174;9.798;2022-10-16T14:55:50;23.90;64.80
27314;DHT22;14800;48.174;9.798;2022-10-16T14:58:22;23.90;64.80
27314;DHT22;14800;48.174;9.798;2022-10-16T15:00:49;24.00;64.30
27314;DHT22;14800;48.174;9.798;2022-10-16T15:03:15;24.00;64.80
27314;DHT22;14800;48.174;9.798;2022-10-16T15:05:41;24.00;64.80
27314;DHT22;14800;48.174;9.798;2022-10-16T15:08:06;24.00;64.80
27314;DHT22;14800;48.174;9.798;2022-10-16T15:10:38;24.00;64.80
27314;DHT22;14800;48.174;9.798;2022-10-16T15:13:04;24.00;64.80
27314;DHT22;14800;48.174;9.798;2022-10-16T15:15:33;24.00;65.20
27314;DHT22;14800;48.174;9.798;2022-10-16T15:18:00;24.00;65.50
27314;DHT22;14800;48.174;9.798;2022-10-16T15:20:28;24.00;65.50
27314;DHT22;14800;48.174;9.798;2022-10-16T15:22:55;24.00;65.50
27314;DHT22;14800;48.174;9.798;2022-10-16T15:25:54;23.90;65.60
27314;DHT22;14800;48.174;9.798;2022-10-16T15:28:21;23.90;65.40
27314;DHT22;14800;48.174;9.798;2022-10-16T15:30:50;23.80;65.50
27314;DHT22;14800;48.174;9.798;2022-10-16T15:33:18;23.80;64.40
27314;DHT22;14800;48.174;9.798;2022-10-16T15:35:47;23.80;64.60
27314;DHT22;14800;48.174;9.798;2022-10-16T15:38:14;23.70;65.00
27314;DHT22;14800;48.174;9.798;2022-10-16T15:40:40;23.70;65.20
27314;DHT22;14800;48.174;9.798;2022-10-16T15:43:06;23.60;65.40
27314;DHT22;14800;48.174;9.798;2022-10-16T15:45:32;23.60;65.70
27314;DHT22;14800;48.174;9.798;2022-10-16T15:47:57;23.50;65.50
27314;DHT22;14800;48.174;9.798;2022-10-16T15:50:23;23.50;66.10
27314;DHT22;14800;48.174;9.798;2022-10-16T15:52:50;23.40;66.10
27314;DHT22;14800;48.174;9.798;2022-10-16T15:55:16;23.40;66.20
27314;DHT22;14800;48.174;9.798;2022-10-16T15:57:42;23.30;65.90
27314;DHT22;14800;48.174;9.798;2022-10-16T16:00:13;23.20;66.00
27314;DHT22;14800;48.174;9.798;2022-10-16T16:02:40;23.10;66.20
27314;DHT22;14800;48.174;9.798;2022-10-16T16:05:08;23.00;67.00
27314;DHT22;14800;48.174;9.798;2022-10-16T16:07:34;23.00;67.40
27314;DHT22;14800;48.174;9.798;2022-10-16T16:10:00;22.80;68.00
27314;DHT22;14800;48.174;9.798;2022-10-16T16:12:26;22.80;68.50
27314;DHT22;14800;48.174;9.798;2022-10-16T16:14:52;22.60;68.90
27314;DHT22;14800;48.174;9.798;2022-10-16T16:17:17;22.50;69.30
27314;DHT22;14800;48.174;9.798;2022-10-16T16:19:43;22.40;69.70
27314;DHT22;14800;48.174;9.798;2022-10-16T16:22:09;22.30;70.20
27314;DHT22;14800;48.174;9.798;2022-10-16T16:24:34;22.20;70.20
27314;DHT22;14800;48.174;9.798;2022-10-16T16:27:00;22.10;70.30
27314;DHT22;14800;48.174;9.798;2022-10-16T16:29:25;22.00;70.40
27314;DHT22;14800;48.174;9.798;2022-10-16T16:31:51;21.90;70.60
27314;DHT22;14800;48.174;9.798;2022-10-16T16:34:26;21.90;70.70
27314;DHT22;14800;48.174;9.798;2022-10-16T16:36:53;21.70;71.90
27314;DHT22;14800;48.174;9.798;2022-10-16T16:39:19;21.60;71.10
27314;DHT22;14800;48.174;9.798;2022-10-16T16:41:44;21.50;71.30
27314;DHT22;14800;48.174;9.798;2022-10-16T16:44:14;21.40;71.30
27314;DHT22;14800;48.174;9.798;2022-10-16T16:46:41;21.40;71.40
27314;DHT22;14800;48.174;9.798;2022-10-16T16:49:12;21.30;71.40
27314;DHT22;14800;48.174;9.798;2022-10-16T16:51:38;21.20;72.30
27314;DHT22;14800;48.174;9.798;2022-10-16T16:54:04;21.10;71.50
27314;DHT22;14800;48.174;9.798;2022-10-16T16:56:30;20.90;71.60
27314;DHT22;14800;48.174;9.798;2022-10-16T16:58:56;20.80;71.90
27314;DHT22;14800;48.174;9.798;2022-10-16T17:01:25;20.70;72.10
27314;DHT22;14800;48.174;9.798;2022-10-16T17:03:52;20.60;72.30
27314;DHT22;14800;48.174;9.798;2022-10-16T17:06:23;20.50;72.50
27314;DHT22;14800;48.174;9.798;2022-10-16T17:08:50;20.40;73.00
27314;DHT22;14800;48.174;9.798;2022-10-16T17:11:24;20.20;73.10
27314;DHT22;14800;48.174;9.798;2022-10-16T17:13:50;20.20;74.00
27314;DHT22;14800;48.174;9.798;2022-10-16T17:16:17;20.00;73.90
27314;DHT22;14800;48.174;9.798;2022-10-16T17:18:43;20.00;74.40
27314;DHT22;14800;48.174;9.798;2022-10-16T17:21:09;19.90;74.70
27314;DHT22;14800;48.174;9.798;2022-10-16T17:23:36;19.80;74.90
27314;DHT22;14800;48.174;9.798;2022-10-16T17:26:05;19.60;75.40
27314;DHT22;14800;48.174;9.798;2022-10-16T17:28:31;19.60;76.00
27314;DHT22;14800;48.174;9.798;2022-10-16T17:31:16;19.50;76.00
27314;DHT22;14800;48.174;9.798;2022-10-16T17:33:43;19.40;76.50
27314;DHT22;14800;48.174;9.798;2022-10-16T17:36:10;19.40;76.30
27314;DHT22;14800;48.174;9.798;2022-10-16T17:38:36;19.30;76.50